sensor_id;sensor_type;location;lat;lon;timestamp;P1;durP1;ratioP1;P2;durP2;ratioP2
27979;SDS011;15315;50.836;4.430;2023-02-01T00:07:05;32.22;;;11.15;;
27979;SDS011;15315;50.836;4.430;2023-02-01T00:17:06;33.03;;;11.75;;
27979;SDS011;15315;50.836;4.430;2023-02-01T00:27:07;30.83;;;12.45;;
27979;SDS011;15315;50.836;4.430;2023-02-01T00:37:07;30.00;;;12.05;;
27979;SDS011;15315;50.836;4.430;2023-02-01T00:47:08;35.65;;;10.40;;
27979;SDS011;15315;50.836;4.430;2023-02-01T00:57:08;40.30;;;9.98;;
27979;SDS011;15315;50.836;4.430;2023-02-01T01:07:08;32.35;;;8.32;;
27979;SDS011;15315;50.836;4.430;2023-02-01T01:17:09;34.58;;;7.78;;
27979;SDS011;15315;50.836;4.430;2023-02-01T01:27:09;36.95;;;7.90;;
27979;SDS011;15315;50.836;4.430;2023-02-01T01:37:10;28.02;;;7.45;;
27979;SDS011;15315;50.836;4.430;2023-02-01T01:47:10;26.42;;;5.78;;
27979;SDS011;15315;50.836;4.430;2023-02-01T01:57:23;26.38;;;4.60;;
27979;SDS011;15315;50.836;4.430;2023-02-01T02:07:31;24.50;;;4.95;;
27979;SDS011;15315;50.836;4.430;2023-02-01T02:17:57;25.38;;;4.30;;
27979;SDS011;15315;50.836;4.430;2023-02-01T02:28:35;26.25;;;4.30;;
27979;SDS011;15315;50.836;4.430;2023-02-01T02:48:47;23.77;;;4.60;;
27979;SDS011;15315;50.836;4.430;2023-02-01T02:59:01;29.70;;;5.03;;
27979;SDS011;15315;50.836;4.430;2023-02-01T03:09:24;19.67;;;3.70;;
27979;SDS011;15315;50.836;4.430;2023-02-01T03:19:34;25.90;;;4.97;;
27979;SDS011;15315;50.836;4.430;2023-02-01T03:40:05;36.47;;;4.60;;
27979;SDS011;15315;50.836;4.430;2023-02-01T03:50:12;19.08;;;4.50;;
27979;SDS011;15315;50.836;4.430;2023-02-01T04:00:17;28.87;;;5.10;;
27979;SDS011;15315;50.836;4.430;2023-02-01T04:10:19;22.03;;;3.87;;
27979;SDS011;15315;50.836;4.430;2023-02-01T04:20:20;26.70;;;3.90;;
27979;SDS011;15315;50.836;4.430;2023-02-01T04:30:20;23.08;;;4.20;;
27979;SDS011;15315;50.836;4.430;2023-02-01T04:40:20;36.30;;;4.60;;
27979;SDS011;15315;50.836;4.430;2023-02-01T04:50:21;37.88;;;4.70;;
27979;SDS011;15315;50.836;4.430;2023-02-01T05:00:23;30.08;;;4.75;;
27979;SDS011;15315;50.836;4.430;2023-02-01T05:10:24;28.77;;;4.35;;
27979;SDS011;15315;50.836;4.430;2023-02-01T05:20:25;25.23;;;4.85;;
27979;SDS011;15315;50.836;4.430;2023-02-01T05:30:25;24.90;;;4.63;;
27979;SDS011;15315;50.836;4.430;2023-02-01T05:40:25;26.88;;;4.60;;
27979;SDS011;15315;50.836;4.430;2023-02-01T05:50:26;32.47;;;4.63;;
27979;SDS011;15315;50.836;4.430;2023-02-01T06:00:26;33.78;;;5.05;;
27979;SDS011;15315;50.836;4.430;2023-02-01T06:10:26;25.25;;;4.25;;
27979;SDS011;15315;50.836;4.430;2023-02-01T06:20:27;34.45;;;4.75;;
27979;SDS011;15315;50.836;4.430;2023-02-01T06:30:27;24.42;;;4.30;;
27979;SDS011;15315;50.836;4.430;2023-02-01T06:40:27;26.63;;;4.38;;
27979;SDS011;15315;50.836;4.430;2023-02-01T06:50:28;26.30;;;4.53;;
27979;SDS011;15315;50.836;4.430;2023-02-01T07:00:28;32.33;;;5.30;;
27979;SDS011;15315;50.836;4.430;2023-02-01T07:10:29;35.57;;;3.90;;
27979;SDS011;15315;50.836;4.430;2023-02-01T07:20:29;25.40;;;4.60;;
27979;SDS011;15315;50.836;4.430;2023-02-01T07:30:30;29.55;;;4.35;;
27979;SDS011;15315;50.836;4.430;2023-02-01T07:40:30;36.80;;;5.38;;
27979;SDS011;15315;50.836;4.430;2023-02-01T07:50:31;30.05;;;4.80;;
27979;SDS011;15315;50.836;4.430;2023-02-01T08:00:31;34.00;;;6.40;;
27979;SDS011;15315;50.836;4.430;2023-02-01T08:10:50;29.30;;;5.07;;
27979;SDS011;15315;50.836;4.430;2023-02-01T08:20:51;30.73;;;4.93;;
27979;SDS011;15315;50.836;4.430;2023-02-01T08:30:51;28.10;;;4.88;;
27979;SDS011;15315;50.836;4.430;2023-02-01T08:40:52;42.05;;;6.03;;
27979;SDS011;15315;50.836;4.430;2023-02-01T08:50:52;30.13;;;4.68;;
27979;SDS011;15315;50.836;4.430;2023-02-01T09:00:53;31.92;;;5.47;;
27979;SDS011;15315;50.836;4.430;2023-02-01T09:10:53;29.60;;;5.28;;
27979;SDS011;15315;50.836;4.430;2023-02-01T09:20:57;33.03;;;6.20;;
27979;SDS011;15315;50.836;4.430;2023-02-01T09:30:58;26.63;;;4.53;;
27979;SDS011;15315;50.836;4.430;2023-02-01T09:41:00;20.60;;;4.57;;
27979;SDS011;15315;50.836;4.430;2023-02-01T09:51:02;28.15;;;4.63;;
27979;SDS011;15315;50.836;4.430;2023-02-01T10:32:39;23.90;;;4.47;;
27979;SDS011;15315;50.836;4.430;2023-02-01T10:42:40;23.30;;;4.28;;
27979;SDS011;15315;50.836;4.430;2023-02-01T10:52:43;27.08;;;4.13;;
27979;SDS011;15315;50.836;4.430;2023-02-01T11:02:49;20.95;;;3.40;;
27979;SDS011;15315;50.836;4.430;2023-02-01T11:12:53;28.13;;;4.13;;
27979;SDS011;15315;50.836;4.430;2023-02-01T11:22:55;21.48;;;3.42;;
27979;SDS011;15315;50.836;4.430;2023-02-01T11:32:56;24.05;;;3.70;;
27979;SDS011;15315;50.836;4.430;2023-02-01T11:43:07;14.40;;;3.20;;
27979;SDS011;15315;50.836;4.430;2023-02-01T11:53:32;23.48;;;3.72;;
27979;SDS011;15315;50.836;4.430;2023-02-01T12:34:45;16.15;;;3.35;;
27979;SDS011;15315;50.836;4.430;2023-02-01T13:05:44;17.98;;;2.92;;
27979;SDS011;15315;50.836;4.430;2023-02-01T13:15:57;13.27;;;2.22;;
27979;SDS011;15315;50.836;4.430;2023-02-01T13:26:06;8.73;;;2.13;;
27979;SDS011;15315;50.836;4.430;2023-02-01T13:36:41;51.22;;;3.40;;
27979;SDS011;15315;50.836;4.430;2023-02-01T13:46:49;11.57;;;3.10;;
27979;SDS011;15315;50.836;4.430;2023-02-01T13:56:53;14.00;;;2.13;;
27979;SDS011;15315;50.836;4.430;2023-02-01T14:06:55;16.55;;;2.63;;
27979;SDS011;15315;50.836;4.430;2023-02-01T14:26:57;14.80;;;2.45;;
27979;SDS011;15315;50.836;4.430;2023-02-01T14:37:02;14.48;;;2.90;;
27979;SDS011;15315;50.836;4.430;2023-02-01T14:57:15;15.05;;;2.55;;
27979;SDS011;15315;50.836;4.430;2023-02-01T15:07:18;12.95;;;2.63;;
27979;SDS011;15315;50.836;4.430;2023-02-01T15:27:24;18.98;;;2.72;;
27979;SDS011;15315;50.836;4.430;2023-02-01T15:37:26;17.33;;;3.42;;
27979;SDS011;15315;50.836;4.430;2023-02-01T15:47:28;23.45;;;3.97;;
27979;SDS011;15315;50.836;4.430;2023-02-01T15:57:34;17.98;;;3.35;;
27979;SDS011;15315;50.836;4.430;2023-02-01T16:07:36;18.15;;;3.17;;
27979;SDS011;15315;50.836;4.430;2023-02-01T16:17:36;20.70;;;3.65;;
27979;SDS011;15315;50.836;4.430;2023-02-01T16:27:37;17.38;;;2.70;;
27979;SDS011;15315;50.836;4.430;2023-02-01T16:37:37;29.38;;;3.72;;
27979;SDS011;15315;50.836;4.430;2023-02-01T16:47:38;18.10;;;3.45;;
27979;SDS011;15315;50.836;4.430;2023-02-01T16:57:45;16.50;;;3.15;;
27979;SDS011;15315;50.836;4.430;2023-02-01T17:07:45;19.52;;;3.75;;
27979;SDS011;15315;50.836;4.430;2023-02-01T17:17:46;22.90;;;5.18;;
27979;SDS011;15315;50.836;4.430;2023-02-01T17:27:49;22.80;;;4.20;;
27979;SDS011;15315;50.836;4.430;2023-02-01T17:37:50;19.67;;;3.75;;
27979;SDS011;15315;50.836;4.430;2023-02-01T17:47:51;28.63;;;4.32;;
27979;SDS011;15315;50.836;4.430;2023-02-01T17:57:51;29.67;;;4.57;;
27979;SDS011;15315;50.836;4.430;2023-02-01T18:07:52;28.27;;;3.70;;
27979;SDS011;15315;50.836;4.430;2023-02-01T18:17:52;31.65;;;5.35;;
27979;SDS011;15315;50.836;4.430;2023-02-01T18:27:53;30.67;;;5.90;;
27979;SDS011;15315;50.836;4.430;2023-02-01T18:37:56;35.85;;;5.03;;
27979;SDS011;15315;50.836;4.430;2023-02-01T18:47:57;24.13;;;4.53;;
27979;SDS011;15315;50.836;4.430;2023-02-01T18:58:02;21.80;;;4.10;;
27979;SDS011;15315;50.836;4.430;2023-02-01T19:08:05;26.88;;;5.20;;
27979;SDS011;15315;50.836;4.430;2023-02-01T19:18:07;25.08;;;4.53;;
27979;SDS011;15315;50.836;4.430;2023-02-01T19:28:08;32.20;;;5.78;;
27979;SDS011;15315;50.836;4.430;2023-02-01T19:38:09;38.08;;;5.32;;
27979;SDS011;15315;50.836;4.430;2023-02-01T19:48:10;36.83;;;6.10;;
27979;SDS011;15315;50.836;4.430;2023-02-01T19:58:12;36.33;;;6.18;;
27979;SDS011;15315;50.836;4.430;2023-02-01T20:08:12;36.15;;;6.07;;
27979;SDS011;15315;50.836;4.430;2023-02-01T20:18:13;34.03;;;5.60;;
27979;SDS011;15315;50.836;4.430;2023-02-01T20:28:13;34.65;;;5.85;;
27979;SDS011;15315;50.836;4.430;2023-02-01T20:38:13;33.00;;;5.95;;
27979;SDS011;15315;50.836;4.430;2023-02-01T20:48:14;32.33;;;5.40;;
27979;SDS011;15315;50.836;4.430;2023-02-01T20:58:14;34.90;;;6.68;;
27979;SDS011;15315;50.836;4.430;2023-02-01T21:08:15;39.67;;;6.25;;
27979;SDS011;15315;50.836;4.430;2023-02-01T21:18:16;29.73;;;4.80;;
27979;SDS011;15315;50.836;4.430;2023-02-01T21:28:17;44.20;;;5.70;;
27979;SDS011;15315;50.836;4.430;2023-02-01T21:38:17;28.75;;;5.13;;
27979;SDS011;15315;50.836;4.430;2023-02-01T21:48:17;33.83;;;5.35;;
27979;SDS011;15315;50.836;4.430;2023-02-01T21:58:18;39.63;;;6.20;;
27979;SDS011;15315;50.836;4.430;2023-02-01T22:08:18;30.85;;;5.63;;
27979;SDS011;15315;50.836;4.430;2023-02-01T22:18:19;33.83;;;5.07;;
27979;SDS011;15315;50.836;4.430;2023-02-01T22:28:19;29.42;;;5.10;;
27979;SDS011;15315;50.836;4.430;2023-02-01T22:38:21;27.70;;;4.45;;
27979;SDS011;15315;50.836;4.430;2023-02-01T22:48:21;27.13;;;4.35;;
27979;SDS011;15315;50.836;4.430;2023-02-01T22:58:22;23.38;;;4.22;;
27979;SDS011;15315;50.836;4.430;2023-02-01T23:08:22;29.60;;;4.57;;
27979;SDS011;15315;50.836;4.430;2023-02-01T23:18:23;23.88;;;4.57;;
27979;SDS011;15315;50.836;4.430;2023-02-01T23:28:25;28.25;;;4.22;;
27979;SDS011;15315;50.836;4.430;2023-02-01T23:38:27;24.60;;;4.15;;
27979;SDS011;15315;50.836;4.430;2023-02-01T23:48:28;26.10;;;4.30;;
27979;SDS011;15315;50.836;4.430;2023-02-01T23:58:28;24.67;;;4.28;;
